createdAt,value
2018-11-25T00:02:04.836Z,17.52
2018-11-25T00:04:39.312Z,19.35
2018-11-25T00:07:13.771Z,18.02
2018-11-25T00:09:48.201Z,16.30
2018-11-25T00:12:22.544Z,21.70
2018-11-25T00:14:56.861Z,21.80
2018-11-25T00:17:31.268Z,18.27
2018-11-25T00:20:11.288Z,19.25
2018-11-25T00:22:45.632Z,18.48
2018-11-25T00:25:20.075Z,18.42
2018-11-25T00:27:54.656Z,15.90
2018-11-25T00:30:29.351Z,15.85
2018-11-25T00:33:03.961Z,17.50
2018-11-25T00:35:38.344Z,18.82
2018-11-25T00:38:12.797Z,18.57
2018-11-25T00:40:47.175Z,16.05
2018-11-25T00:43:21.501Z,19.65
2018-11-25T00:45:55.968Z,21.42
2018-11-25T00:48:30.382Z,18.32
2018-11-25T00:51:05.102Z,17.48
2018-11-25T00:53:39.599Z,23.25
2018-11-25T00:56:14.007Z,16.87
2018-11-25T00:58:48.424Z,16.42
2018-11-25T01:01:23.172Z,19.45
2018-11-25T01:03:57.555Z,18.35
2018-11-25T01:06:32.104Z,16.42
2018-11-25T01:09:08.647Z,17.95
2018-11-25T01:11:42.968Z,16.12
2018-11-25T01:14:17.463Z,19.80
2018-11-25T01:16:51.832Z,16.17
2018-11-25T01:19:26.260Z,19.60
2018-11-25T01:22:00.739Z,17.52
2018-11-25T01:24:34.996Z,16.70
2018-11-25T01:27:09.244Z,17.12
2018-11-25T01:29:43.512Z,15.32
2018-11-25T01:32:17.800Z,16.10
2018-11-25T01:34:53.055Z,15.08
2018-11-25T01:37:26.568Z,16.87
2018-11-25T01:40:00.837Z,13.08
2018-11-25T01:42:35.170Z,14.55
2018-11-25T01:45:10.727Z,14.03
2018-11-25T01:47:45.073Z,13.13
2018-11-25T01:50:19.487Z,14.03
2018-11-25T01:52:53.796Z,12.93
2018-11-25T01:55:28.103Z,16.40
2018-11-25T01:58:02.443Z,12.53
2018-11-25T02:00:36.875Z,13.83
2018-11-25T02:03:11.126Z,13.80
2018-11-25T02:05:45.394Z,14.50
2018-11-25T02:08:19.619Z,11.50
2018-11-25T02:10:54.084Z,13.75
2018-11-25T02:13:28.558Z,30.25
2018-11-25T02:16:02.946Z,17.82
2018-11-25T02:18:37.390Z,12.13
2018-11-25T02:21:11.677Z,11.55
2018-11-25T02:23:45.996Z,8.73
2018-11-25T02:26:20.223Z,10.63
2018-11-25T02:28:54.586Z,10.15
2018-11-25T02:31:28.928Z,10.72
2018-11-25T02:34:03.256Z,9.88
2018-11-25T02:36:37.686Z,8.33
2018-11-25T02:39:12.387Z,8.80
2018-11-25T02:41:46.975Z,12.45
2018-11-25T02:44:21.602Z,9.60
2018-11-25T02:46:56.162Z,10.58
2018-11-25T02:49:30.565Z,12.28
2018-11-25T02:52:04.992Z,10.80
2018-11-25T02:54:39.437Z,9.20
2018-11-25T02:57:13.759Z,11.33
2018-11-25T02:59:48.181Z,11.78
2018-11-25T03:02:22.648Z,11.08
2018-11-25T03:04:57.098Z,11.83
2018-11-25T03:07:31.348Z,10.72
2018-11-25T03:10:06.287Z,10.53
2018-11-25T03:12:40.547Z,10.63
2018-11-25T03:15:16.429Z,11.85
2018-11-25T03:17:50.880Z,9.98
2018-11-25T03:20:25.367Z,9.13
2018-11-25T03:22:59.750Z,9.65
2018-11-25T03:25:34.103Z,8.73
2018-11-25T03:28:08.464Z,10.70
2018-11-25T03:30:42.783Z,8.50
2018-11-25T03:33:17.126Z,9.30
2018-11-25T03:35:51.588Z,9.53
2018-11-25T03:38:25.888Z,8.35
2018-11-25T03:41:00.129Z,7.67
2018-11-25T03:43:34.413Z,8.78
2018-11-25T03:46:08.727Z,8.45
2018-11-25T03:48:43.101Z,10.38
2018-11-25T03:51:17.518Z,10.72
2018-11-25T03:53:51.838Z,11.43
2018-11-25T03:56:26.129Z,8.98
2018-11-25T03:59:00.441Z,8.95
2018-11-25T04:01:34.801Z,9.63
2018-11-25T04:04:09.113Z,7.35
2018-11-25T04:06:43.397Z,8.90
2018-11-25T04:09:17.693Z,8.43
2018-11-25T04:11:52.110Z,9.08
2018-11-25T04:14:26.537Z,7.62
2018-11-25T04:17:00.893Z,8.55
2018-11-25T04:19:35.367Z,7.90
2018-11-25T04:22:09.801Z,7.42
2018-11-25T04:24:44.285Z,9.00
2018-11-25T04:27:18.623Z,8.85
2018-11-25T04:29:52.943Z,6.67
2018-11-25T04:32:27.203Z,7.17
2018-11-25T04:35:01.663Z,7.05
2018-11-25T04:37:35.927Z,7.10
2018-11-25T04:40:11.358Z,5.97
2018-11-25T04:42:45.718Z,6.95
2018-11-25T04:45:20.082Z,7.25
2018-11-25T04:47:54.365Z,6.35
2018-11-25T04:50:28.916Z,8.33
2018-11-25T04:53:03.373Z,8.23
2018-11-25T04:55:37.669Z,6.20
2018-11-25T04:58:12.112Z,5.90
2018-11-25T05:00:46.425Z,6.60
2018-11-25T05:03:20.748Z,9.53
2018-11-25T05:05:55.234Z,9.13
2018-11-25T05:08:29.651Z,7.33
2018-11-25T05:11:03.879Z,8.30
2018-11-25T05:13:38.298Z,6.40
2018-11-25T05:16:12.669Z,9.25
2018-11-25T05:18:46.876Z,7.92
2018-11-25T05:21:21.358Z,8.20
2018-11-25T05:23:55.595Z,7.40
2018-11-25T05:26:30.063Z,7.33
2018-11-25T05:29:04.496Z,7.58
2018-11-25T05:31:38.739Z,8.20
2018-11-25T05:34:13.180Z,8.83
2018-11-25T05:36:47.672Z,8.63
2018-11-25T05:39:22.024Z,6.37
2018-11-25T05:41:56.506Z,8.00
2018-11-25T05:44:30.747Z,10.28
2018-11-25T05:47:05.075Z,9.48
2018-11-25T05:49:39.342Z,7.22
2018-11-25T05:52:13.687Z,8.05
2018-11-25T05:54:48.018Z,8.65
2018-11-25T05:57:22.254Z,9.03
2018-11-25T05:59:56.692Z,7.70
2018-11-25T06:02:31.113Z,6.67
2018-11-25T06:05:05.734Z,7.03
2018-11-25T06:07:40.540Z,6.95
2018-11-25T06:10:14.878Z,8.45
2018-11-25T06:12:49.190Z,7.10
2018-11-25T06:15:23.502Z,8.60
2018-11-25T06:17:57.735Z,7.60
2018-11-25T06:20:32.042Z,7.42
2018-11-25T06:23:06.286Z,7.37
2018-11-25T06:25:40.732Z,7.20
2018-11-25T06:28:15.045Z,7.40
2018-11-25T06:30:49.468Z,7.35
2018-11-25T06:33:23.885Z,7.35
2018-11-25T06:35:58.235Z,6.80
2018-11-25T06:38:32.670Z,5.62
2018-11-25T06:41:07.149Z,6.05
2018-11-25T06:43:41.560Z,9.25
2018-11-25T06:46:15.944Z,9.98
2018-11-25T06:48:54.805Z,6.55
2018-11-25T06:51:24.794Z,9.50
2018-11-25T06:53:59.336Z,10.63
2018-11-25T06:56:33.678Z,7.53
2018-11-25T06:59:08.016Z,7.65
2018-11-25T07:01:42.585Z,9.45
2018-11-25T07:04:17.010Z,7.75
2018-11-25T07:06:51.530Z,7.05
2018-11-25T07:09:25.769Z,7.50
2018-11-25T07:12:00.061Z,9.40
2018-11-25T07:14:34.412Z,9.83
2018-11-25T07:17:08.754Z,18.67
2018-11-25T07:19:43.046Z,14.28
2018-11-25T07:22:17.613Z,12.10
2018-11-25T07:24:52.017Z,9.80
2018-11-25T07:27:26.473Z,7.03
2018-11-25T07:30:03.521Z,8.08
2018-11-25T07:32:35.248Z,8.33
2018-11-25T07:35:09.673Z,8.68
2018-11-25T07:37:44.063Z,7.50
2018-11-25T07:40:19.332Z,8.43
2018-11-25T07:42:53.553Z,8.60
2018-11-25T07:45:30.450Z,9.98
2018-11-25T07:48:02.081Z,9.53
2018-11-25T07:50:36.377Z,9.55
2018-11-25T07:53:10.751Z,9.10
2018-11-25T07:55:45.080Z,8.10
2018-11-25T07:58:19.472Z,8.58
2018-11-25T08:00:53.975Z,9.65
2018-11-25T08:03:28.228Z,10.20
2018-11-25T08:06:02.477Z,8.80
2018-11-25T08:08:36.876Z,7.62
2018-11-25T08:11:11.143Z,6.70
2018-11-25T08:13:45.467Z,7.03
2018-11-25T08:16:19.998Z,9.45
2018-11-25T08:18:54.248Z,8.65
2018-11-25T08:21:28.650Z,8.18
2018-11-25T08:24:02.902Z,9.43
2018-11-25T08:26:37.244Z,7.25
2018-11-25T08:29:11.590Z,8.45
2018-11-25T08:31:45.810Z,7.62
2018-11-25T08:34:21.331Z,6.25
2018-11-25T08:36:54.472Z,8.33
2018-11-25T08:39:28.753Z,8.03
2018-11-25T08:42:03.155Z,8.33
2018-11-25T08:44:37.432Z,7.92
2018-11-25T08:47:11.695Z,6.45
2018-11-25T08:49:46.048Z,7.50
2018-11-25T08:52:20.284Z,8.78
2018-11-25T08:54:54.997Z,8.13
2018-11-25T08:57:28.755Z,7.65
2018-11-25T09:00:03.089Z,8.90
2018-11-25T09:02:37.429Z,11.40
2018-11-25T09:05:12.832Z,8.55
2018-11-25T09:07:47.199Z,6.03
2018-11-25T09:10:22.101Z,7.42
2018-11-25T09:12:57.444Z,6.12
2018-11-25T09:15:31.788Z,6.65
2018-11-25T09:18:06.149Z,5.70
2018-11-25T09:20:40.530Z,5.75
2018-11-25T09:23:14.865Z,5.00
2018-11-25T09:25:49.304Z,4.25
2018-11-25T09:28:23.618Z,4.28
2018-11-25T09:30:57.827Z,4.53
2018-11-25T09:33:32.290Z,4.85
2018-11-25T09:36:06.586Z,4.78
2018-11-25T09:38:40.841Z,4.58
2018-11-25T09:41:15.116Z,4.70
2018-11-25T09:43:49.349Z,4.35
2018-11-25T09:46:23.656Z,4.62
2018-11-25T09:48:58.021Z,6.03
2018-11-25T09:51:32.275Z,7.00
2018-11-25T09:54:06.554Z,3.95
2018-11-25T09:56:40.827Z,5.53
2018-11-25T09:59:15.026Z,3.65
2018-11-25T10:01:49.398Z,4.60
2018-11-25T10:04:23.714Z,6.22
2018-11-25T10:06:58.044Z,7.35
2018-11-25T10:09:32.305Z,5.60
2018-11-25T10:12:06.695Z,5.30
2018-11-25T10:14:40.972Z,5.85
2018-11-25T10:17:15.337Z,5.00
2018-11-25T10:19:49.533Z,5.83
2018-11-25T10:22:23.836Z,5.55
2018-11-25T10:24:58.460Z,8.75
2018-11-25T10:27:32.864Z,11.38
2018-11-25T10:30:11.967Z,7.67
2018-11-25T10:32:47.523Z,6.10
2018-11-25T10:35:21.756Z,7.15
2018-11-25T10:37:56.142Z,5.65
2018-11-25T10:40:30.565Z,6.90
2018-11-25T10:43:04.882Z,5.70
2018-11-25T10:45:39.373Z,6.03
2018-11-25T10:48:13.656Z,5.95
2018-11-25T10:50:51.226Z,6.42
2018-11-25T10:53:22.448Z,6.15
2018-11-25T10:55:56.794Z,8.80
2018-11-25T10:58:31.062Z,6.95
2018-11-25T11:01:11.442Z,8.40
2018-11-25T11:03:51.348Z,8.25
2018-11-25T11:06:31.594Z,10.13
2018-11-25T11:09:07.112Z,8.28
2018-11-25T11:11:41.580Z,7.45
2018-11-25T11:14:15.978Z,14.43
2018-11-25T11:16:54.015Z,10.58
2018-11-25T11:19:24.732Z,11.38
2018-11-25T11:21:59.143Z,7.75
2018-11-25T11:24:33.785Z,6.87
2018-11-25T11:27:08.235Z,7.70
2018-11-25T11:29:42.649Z,6.10
2018-11-25T11:32:17.315Z,6.62
2018-11-25T11:34:51.560Z,6.62
2018-11-25T11:37:26.023Z,8.20
2018-11-25T11:40:00.473Z,6.47
2018-11-25T11:42:34.865Z,6.05
2018-11-25T11:45:11.536Z,8.93
2018-11-25T11:47:45.971Z,9.08
2018-11-25T11:50:21.503Z,6.78
2018-11-25T11:52:55.821Z,6.08
2018-11-25T11:55:30.230Z,6.62
2018-11-25T11:58:04.475Z,6.50
2018-11-25T12:00:38.839Z,6.83
2018-11-25T12:03:13.160Z,6.53
2018-11-25T12:05:47.427Z,6.15
2018-11-25T12:08:21.644Z,6.75
2018-11-25T12:10:55.980Z,7.90
2018-11-25T12:13:30.193Z,5.95
2018-11-25T12:16:04.555Z,7.05
2018-11-25T12:18:38.939Z,7.40
2018-11-25T12:21:13.276Z,8.45
2018-11-25T12:23:47.674Z,8.20
2018-11-25T12:26:22.084Z,8.20
2018-11-25T12:28:56.347Z,9.35
2018-11-25T12:31:30.817Z,8.83
2018-11-25T12:34:05.174Z,8.93
2018-11-25T12:36:39.656Z,9.05
2018-11-25T12:39:13.958Z,8.60
2018-11-25T12:41:48.231Z,10.43
2018-11-25T12:44:25.743Z,9.35
2018-11-25T12:46:57.225Z,9.48
2018-11-25T12:49:31.698Z,8.80
2018-11-25T12:52:06.211Z,9.50
2018-11-25T12:54:40.548Z,8.80
2018-11-25T12:57:14.873Z,12.80
2018-11-25T12:59:49.260Z,12.30
2018-11-25T13:02:23.669Z,9.43
2018-11-25T13:04:58.170Z,8.55
2018-11-25T13:07:32.606Z,8.95
2018-11-25T13:10:07.485Z,9.00
2018-11-25T13:12:42.089Z,7.55
2018-11-25T13:15:16.542Z,8.78
2018-11-25T13:17:50.888Z,8.40
2018-11-25T13:20:25.197Z,8.05
2018-11-25T13:22:59.654Z,7.87
2018-11-25T13:25:33.967Z,8.05
2018-11-25T13:28:08.337Z,8.30
2018-11-25T13:30:42.629Z,7.25
2018-11-25T13:33:17.066Z,6.83
2018-11-25T13:35:51.529Z,7.95
2018-11-25T13:38:25.792Z,7.40
2018-11-25T13:41:00.126Z,7.10
2018-11-25T13:43:34.359Z,6.92
2018-11-25T13:46:08.902Z,7.47
2018-11-25T13:48:43.188Z,7.35
2018-11-25T13:51:17.712Z,6.40
2018-11-25T13:53:52.197Z,7.65
2018-11-25T13:56:27.165Z,7.55
2018-11-25T13:59:01.473Z,7.55
2018-11-25T14:01:35.871Z,7.08
2018-11-25T14:04:10.314Z,7.60
2018-11-25T14:06:44.933Z,6.28
2018-11-25T14:09:19.298Z,7.47
2018-11-25T14:11:53.735Z,10.25
2018-11-25T14:14:28.151Z,8.45
2018-11-25T14:17:02.584Z,10.40
2018-11-25T14:19:36.837Z,8.80
2018-11-25T14:22:11.135Z,6.22
2018-11-25T14:24:45.440Z,7.40
2018-11-25T14:27:19.754Z,7.03
2018-11-25T14:29:54.077Z,6.33
2018-11-25T14:32:28.584Z,6.62
2018-11-25T14:35:03.031Z,7.00
2018-11-25T14:37:37.295Z,7.20
2018-11-25T14:40:13.129Z,6.70
2018-11-25T14:42:47.541Z,6.37
2018-11-25T14:45:21.919Z,6.55
2018-11-25T14:47:56.313Z,7.45
2018-11-25T14:50:30.545Z,8.55
2018-11-25T14:53:05.426Z,8.18
2018-11-25T14:55:39.867Z,7.65
2018-11-25T14:58:14.200Z,7.40
2018-11-25T15:00:48.491Z,7.50
2018-11-25T15:03:22.930Z,7.17
2018-11-25T15:05:57.243Z,7.10
2018-11-25T15:08:31.652Z,7.50
2018-11-25T15:11:05.944Z,7.42
2018-11-25T15:13:40.245Z,5.83
2018-11-25T15:16:15.371Z,7.75
2018-11-25T15:18:49.893Z,8.35
2018-11-25T15:21:24.162Z,7.30
2018-11-25T15:23:58.461Z,8.25
2018-11-25T15:26:32.960Z,7.67
2018-11-25T15:29:07.273Z,7.58
2018-11-25T15:31:41.546Z,22.35
2018-11-25T15:34:15.973Z,8.75
2018-11-25T15:36:50.377Z,6.28
2018-11-25T15:39:24.679Z,7.80
2018-11-25T15:41:59.318Z,6.75
2018-11-25T15:44:33.568Z,10.80
2018-11-25T15:47:08.405Z,9.38
2018-11-25T15:49:42.292Z,10.43
2018-11-25T15:52:16.660Z,7.03
2018-11-25T15:54:51.120Z,8.38
2018-11-25T15:57:25.465Z,8.03
2018-11-25T15:59:59.909Z,9.83
2018-11-25T16:02:34.278Z,12.03
2018-11-25T16:05:10.339Z,10.75
2018-11-25T16:07:44.567Z,10.38
2018-11-25T16:10:18.880Z,9.35
2018-11-25T16:12:53.395Z,13.10
2018-11-25T16:15:28.394Z,15.70
2018-11-25T16:18:02.793Z,23.95
2018-11-25T16:20:37.101Z,30.95
2018-11-25T16:23:11.490Z,18.77
2018-11-25T16:25:48.643Z,16.37
2018-11-25T16:28:27.083Z,25.43
2018-11-25T16:31:01.432Z,13.98
2018-11-25T16:33:35.867Z,19.30
2018-11-25T16:36:10.167Z,14.30
2018-11-25T16:38:44.607Z,11.50
2018-11-25T16:41:18.965Z,14.07
2018-11-25T16:43:53.410Z,11.70
2018-11-25T16:46:27.767Z,11.60
2018-11-25T16:49:02.101Z,12.18
2018-11-25T16:51:36.572Z,17.42
2018-11-25T16:54:13.679Z,16.25
2018-11-25T16:56:49.715Z,23.70
2018-11-25T16:59:24.689Z,14.03
2018-11-25T17:01:59.113Z,10.18
2018-11-25T17:04:33.540Z,14.15
2018-11-25T17:07:07.915Z,12.82
2018-11-25T17:09:42.180Z,11.22
2018-11-25T17:12:16.552Z,12.95
2018-11-25T17:14:50.940Z,12.00
2018-11-25T17:17:25.189Z,9.28
2018-11-25T17:19:59.600Z,16.20
2018-11-25T17:22:34.052Z,13.08
2018-11-25T17:25:09.895Z,16.25
2018-11-25T17:27:44.269Z,27.13
2018-11-25T17:30:19.619Z,17.82
2018-11-25T17:32:53.940Z,23.90
2018-11-25T17:35:29.789Z,22.30
2018-11-25T17:38:04.232Z,13.53
2018-11-25T17:40:39.117Z,12.47
2018-11-25T17:43:15.860Z,10.93
2018-11-25T17:45:50.329Z,24.25
2018-11-25T17:48:24.822Z,16.17
2018-11-25T17:50:59.117Z,17.20
2018-11-25T17:53:33.408Z,13.72
2018-11-25T17:56:07.769Z,9.48
2018-11-25T17:58:42.281Z,11.33
2018-11-25T18:01:16.645Z,13.68
2018-11-25T18:03:51.405Z,11.88
2018-11-25T18:06:25.714Z,9.53
2018-11-25T18:09:00.135Z,10.65
2018-11-25T18:11:34.456Z,8.28
2018-11-25T18:14:09.524Z,8.40
2018-11-25T18:16:43.861Z,8.33
2018-11-25T18:19:19.814Z,7.85
2018-11-25T18:21:57.351Z,7.95
2018-11-25T18:24:31.660Z,6.45
2018-11-25T18:27:06.131Z,6.33
2018-11-25T18:29:41.433Z,6.97
2018-11-25T18:32:16.028Z,11.63
2018-11-25T18:34:50.380Z,11.43
2018-11-25T18:37:24.708Z,9.70
2018-11-25T18:39:59.076Z,7.33
2018-11-25T18:42:33.441Z,7.55
2018-11-25T18:45:14.095Z,9.65
2018-11-25T18:47:49.591Z,10.53
2018-11-25T18:50:23.841Z,12.07
2018-11-25T18:52:58.287Z,14.07
2018-11-25T18:55:31.723Z,11.00
2018-11-25T18:58:06.366Z,14.25
2018-11-25T19:00:45.917Z,13.95
2018-11-25T19:03:20.155Z,11.65
2018-11-25T19:05:54.536Z,10.82
2018-11-25T19:08:29.025Z,11.48
2018-11-25T19:11:03.431Z,11.15
2018-11-25T19:13:37.639Z,10.85
2018-11-25T19:16:11.990Z,12.90
2018-11-25T19:18:46.296Z,9.85
2018-11-25T19:21:20.616Z,10.23
2018-11-25T19:23:54.935Z,11.03
2018-11-25T19:26:29.180Z,8.13
2018-11-25T19:29:03.605Z,8.48
2018-11-25T19:31:38.104Z,8.78
2018-11-25T19:34:12.570Z,9.35
2018-11-25T19:36:46.909Z,7.67
2018-11-25T19:39:21.312Z,7.33
2018-11-25T19:41:55.624Z,6.80
2018-11-25T19:44:29.937Z,7.15
2018-11-25T19:47:04.264Z,7.65
2018-11-25T19:49:38.646Z,7.33
2018-11-25T19:52:12.966Z,8.08
2018-11-25T19:54:47.419Z,8.35
2018-11-25T19:57:21.721Z,8.65
2018-11-25T19:59:56.055Z,13.58
2018-11-25T20:02:30.491Z,13.53
2018-11-25T20:05:05.992Z,15.70
2018-11-25T20:07:40.728Z,14.50
2018-11-25T20:10:17.023Z,13.72
2018-11-25T20:12:52.475Z,14.15
2018-11-25T20:15:26.909Z,14.00
2018-11-25T20:18:01.264Z,14.43
2018-11-25T20:20:35.656Z,11.88
2018-11-25T20:23:09.912Z,11.45
2018-11-25T20:25:44.185Z,9.10
2018-11-25T20:28:18.481Z,10.65
2018-11-25T20:30:52.964Z,11.53
2018-11-25T20:33:32.802Z,11.40
2018-11-25T20:36:07.319Z,13.10
2018-11-25T20:38:47.163Z,11.78
2018-11-25T20:41:21.497Z,12.68
2018-11-25T20:43:55.979Z,13.88
2018-11-25T20:46:35.788Z,11.60
2018-11-25T20:49:10.209Z,10.53
2018-11-25T20:51:49.993Z,9.63
2018-11-25T20:54:24.480Z,9.58
2018-11-25T20:56:58.917Z,9.48
2018-11-25T20:59:33.291Z,10.30
2018-11-25T21:02:07.615Z,8.18
2018-11-25T21:04:42.045Z,9.10
2018-11-25T21:07:16.417Z,8.85
2018-11-25T21:09:50.884Z,8.30
2018-11-25T21:12:25.292Z,8.13
2018-11-25T21:14:59.696Z,9.10
2018-11-25T21:17:34.078Z,10.43
2018-11-25T21:20:15.430Z,12.37
2018-11-25T21:22:49.725Z,11.12
2018-11-25T21:25:24.159Z,10.18
2018-11-25T21:27:58.590Z,9.23
2018-11-25T21:30:33.085Z,8.90
2018-11-25T21:33:07.524Z,10.55
2018-11-25T21:35:41.991Z,9.73
2018-11-25T21:38:16.346Z,10.65
2018-11-25T21:40:50.585Z,9.70
2018-11-25T21:43:24.948Z,10.68
2018-11-25T21:45:59.287Z,9.98
2018-11-25T21:48:33.581Z,10.78
2018-11-25T21:51:07.909Z,10.15
2018-11-25T21:53:42.259Z,13.15
2018-11-25T21:56:16.587Z,10.35
2018-11-25T21:58:50.874Z,10.78
2018-11-25T22:01:25.254Z,10.88
2018-11-25T22:03:59.624Z,10.45
2018-11-25T22:06:34.003Z,9.98
2018-11-25T22:09:09.591Z,11.10
2018-11-25T22:11:44.075Z,10.55
2018-11-25T22:14:18.619Z,10.70
2018-11-25T22:16:53.226Z,9.20
2018-11-25T22:19:27.781Z,10.43
2018-11-25T22:22:02.460Z,9.95
2018-11-25T22:24:36.933Z,10.28
2018-11-25T22:27:11.329Z,10.53
2018-11-25T22:29:45.673Z,10.20
2018-11-25T22:32:20.121Z,10.15
2018-11-25T22:34:54.515Z,10.55
2018-11-25T22:37:29.039Z,10.23
2018-11-25T22:40:03.524Z,10.08
2018-11-25T22:42:38.650Z,9.40
2018-11-25T22:45:14.979Z,10.60
2018-11-25T22:47:49.495Z,10.38
2018-11-25T22:50:27.669Z,9.73
2018-11-25T22:52:58.474Z,8.93
2018-11-25T22:55:32.795Z,9.20
2018-11-25T22:58:07.133Z,8.33
2018-11-25T23:00:41.530Z,8.43
2018-11-25T23:03:16.033Z,8.50
2018-11-25T23:06:31.808Z,9.88
2018-11-25T23:09:07.881Z,8.63
2018-11-25T23:11:42.298Z,8.78
2018-11-25T23:14:16.780Z,8.55
2018-11-25T23:16:51.196Z,7.97
2018-11-25T23:19:25.552Z,8.73
2018-11-25T23:21:59.945Z,8.25
2018-11-25T23:24:34.465Z,8.55
2018-11-25T23:27:09.083Z,8.53
2018-11-25T23:29:43.505Z,8.70
2018-11-25T23:32:18.070Z,7.75
2018-11-25T23:34:52.490Z,8.03
2018-11-25T23:37:26.924Z,9.20
2018-11-25T23:40:01.581Z,9.53
2018-11-25T23:42:36.249Z,8.70
2018-11-25T23:45:13.058Z,8.80
2018-11-25T23:47:47.479Z,9.28
2018-11-25T23:50:22.006Z,8.33
2018-11-25T23:52:56.548Z,9.00
2018-11-25T23:55:30.910Z,8.95
2018-11-25T23:58:05.273Z,8.70
